createdAt,value
2023-02-17T00:01:33.694Z,12.70
2023-02-17T00:04:00.776Z,12.80
2023-02-17T00:06:31.646Z,12.80
2023-02-17T00:09:00.004Z,12.50
2023-02-17T00:11:28.349Z,12.70
2023-02-17T00:13:56.422Z,12.60
2023-02-17T00:16:26.678Z,12.50
2023-02-17T00:18:58.256Z,12.70
2023-02-17T00:21:29.344Z,12.70
2023-02-17T00:23:58.827Z,12.50
2023-02-17T00:26:25.806Z,12.80
2023-02-17T00:28:52.661Z,12.90
2023-02-17T00:31:22.338Z,12.70
2023-02-17T00:33:49.724Z,12.60
2023-02-17T00:36:19.997Z,12.50
2023-02-17T00:38:48.254Z,12.70
2023-02-17T00:41:18.862Z,12.60
2023-02-17T00:43:47.542Z,12.90
2023-02-17T00:46:15.412Z,12.60
2023-02-17T00:48:42.320Z,13.10
2023-02-17T00:51:09.805Z,12.80
2023-02-17T00:53:36.754Z,13.00
2023-02-17T00:56:04.986Z,12.90
2023-02-17T00:58:31.976Z,12.70
2023-02-17T01:00:59.229Z,12.70
2023-02-17T01:03:27.348Z,12.60
2023-02-17T01:05:55.131Z,12.60
2023-02-17T01:08:23.515Z,12.60
2023-02-17T01:10:51.373Z,12.30
2023-02-17T01:13:19.532Z,12.50
2023-02-17T01:15:53.261Z,12.50
2023-02-17T01:18:23.553Z,12.30
2023-02-17T01:20:50.662Z,12.40
2023-02-17T01:23:17.430Z,12.50
2023-02-17T01:25:46.827Z,12.40
2023-02-17T01:28:20.616Z,12.50
2023-02-17T01:30:48.542Z,12.20
2023-02-17T01:33:15.609Z,12.40
2023-02-17T01:35:42.722Z,12.60
2023-02-17T01:38:09.522Z,12.40
2023-02-17T01:40:36.506Z,12.30
2023-02-17T01:43:03.722Z,12.30
2023-02-17T01:45:34.414Z,12.30
2023-02-17T01:48:08.677Z,12.50
2023-02-17T01:51:01.588Z,12.30
2023-02-17T01:53:35.810Z,12.30
2023-02-17T01:56:04.310Z,12.20
2023-02-17T01:58:31.618Z,12.30
2023-02-17T02:01:01.580Z,12.20
2023-02-17T02:03:32.772Z,11.90
2023-02-17T02:06:04.642Z,12.10
2023-02-17T02:08:46.098Z,12.10
2023-02-17T02:11:12.893Z,12.00
2023-02-17T02:13:39.776Z,12.00
2023-02-17T02:16:27.348Z,12.00
2023-02-17T02:19:10.572Z,12.00
2023-02-17T02:22:32.153Z,12.10
2023-02-17T02:25:33.165Z,12.10
2023-02-17T02:28:27.185Z,12.40
2023-02-17T02:31:35.637Z,11.90
2023-02-17T02:34:16.044Z,11.90
2023-02-17T02:36:56.397Z,11.90
2023-02-17T02:39:33.260Z,12.00
2023-02-17T02:42:06.250Z,12.10
2023-02-17T02:44:33.038Z,12.00
2023-02-17T02:47:04.337Z,12.00
2023-02-17T02:49:32.229Z,12.00
2023-02-17T02:52:34.386Z,11.90
2023-02-17T02:55:32.361Z,11.90
2023-02-17T02:58:32.670Z,11.90
2023-02-17T03:01:19.866Z,11.80
2023-02-17T03:04:07.651Z,12.00
2023-02-17T03:06:42.515Z,12.40
2023-02-17T03:09:19.839Z,12.00
2023-02-17T03:11:47.770Z,11.90
2023-02-17T03:14:20.075Z,11.90
2023-02-17T03:16:47.972Z,12.00
2023-02-17T03:19:17.506Z,11.90
2023-02-17T03:21:50.023Z,11.90
2023-02-17T03:24:17.832Z,12.00
2023-02-17T03:26:44.781Z,11.70
2023-02-17T03:29:11.870Z,11.90
2023-02-17T03:31:40.236Z,11.90
2023-02-17T03:34:07.128Z,11.90
2023-02-17T03:36:33.929Z,11.90
2023-02-17T03:39:00.782Z,11.90
2023-02-17T03:41:27.607Z,12.20
2023-02-17T03:43:54.581Z,11.80
2023-02-17T03:46:21.594Z,11.80
2023-02-17T03:48:48.375Z,11.80
2023-02-17T03:51:21.754Z,11.90
2023-02-17T03:53:49.674Z,12.10
2023-02-17T03:56:17.941Z,11.70
2023-02-17T03:58:44.853Z,11.80
2023-02-17T04:01:12.921Z,11.90
2023-02-17T04:03:40.748Z,11.80
2023-02-17T04:06:09.049Z,11.90
2023-02-17T04:08:36.175Z,11.80
2023-02-17T04:11:05.041Z,11.80
2023-02-17T04:13:32.108Z,12.10
2023-02-17T04:16:01.253Z,11.80
2023-02-17T04:18:28.482Z,11.70
2023-02-17T04:20:55.296Z,11.70
2023-02-17T04:23:22.622Z,11.80
2023-02-17T04:25:49.835Z,11.70
2023-02-17T04:28:17.974Z,11.70
2023-02-17T04:30:47.459Z,11.90
2023-02-17T04:33:14.938Z,11.80
2023-02-17T04:35:42.360Z,12.00
2023-02-17T04:38:10.602Z,11.70
2023-02-17T04:40:38.391Z,11.90
2023-02-17T04:43:05.503Z,11.90
2023-02-17T04:45:32.618Z,11.90
2023-02-17T04:47:59.402Z,12.20
2023-02-17T04:50:26.232Z,11.90
2023-02-17T04:52:53.024Z,11.90
2023-02-17T04:55:20.112Z,12.10
2023-02-17T04:57:46.912Z,11.80
2023-02-17T05:00:14.146Z,11.80
2023-02-17T05:02:40.940Z,11.70
2023-02-17T05:05:08.040Z,11.80
2023-02-17T05:07:34.843Z,11.80
2023-02-17T05:10:01.660Z,11.60
2023-02-17T05:12:28.409Z,11.80
2023-02-17T05:14:55.214Z,11.70
2023-02-17T05:17:21.982Z,11.60
2023-02-17T05:19:48.767Z,11.80
2023-02-17T05:22:15.550Z,11.70
2023-02-17T05:24:42.324Z,12.30
2023-02-17T05:27:09.327Z,11.70
2023-02-17T05:29:36.246Z,11.90
2023-02-17T05:32:03.154Z,11.70
2023-02-17T05:34:30.117Z,12.00
2023-02-17T05:36:56.924Z,11.70
2023-02-17T05:39:23.845Z,11.80
2023-02-17T05:41:50.613Z,12.00
2023-02-17T05:44:17.370Z,11.50
2023-02-17T05:46:44.270Z,12.00
2023-02-17T05:49:11.065Z,11.60
2023-02-17T05:51:38.307Z,11.50
2023-02-17T05:54:05.619Z,11.50
2023-02-17T05:56:32.819Z,11.50
2023-02-17T05:59:00.554Z,11.40
2023-02-17T06:01:27.676Z,11.40
2023-02-17T06:03:54.470Z,11.50
2023-02-17T06:06:21.392Z,11.30
2023-02-17T06:08:48.208Z,11.40
2023-02-17T06:11:14.984Z,11.30
2023-02-17T06:13:41.753Z,11.30
2023-02-17T06:16:08.738Z,11.10
2023-02-17T06:18:35.651Z,11.20
2023-02-17T06:21:02.438Z,11.10
2023-02-17T06:23:29.246Z,11.50
2023-02-17T06:25:56.010Z,11.00
2023-02-17T06:28:22.744Z,11.20
2023-02-17T06:30:49.564Z,11.20
2023-02-17T06:33:16.388Z,11.10
2023-02-17T06:35:44.492Z,11.30
2023-02-17T06:38:11.357Z,10.90
2023-02-17T06:40:38.160Z,10.90
2023-02-17T06:43:06.928Z,10.80
2023-02-17T06:45:33.815Z,11.00
2023-02-17T06:48:00.605Z,10.90
2023-02-17T06:50:27.499Z,10.70
2023-02-17T06:52:54.340Z,10.60
2023-02-17T06:55:21.169Z,10.80
2023-02-17T06:57:47.945Z,10.70
2023-02-17T07:00:15.072Z,10.70
2023-02-17T07:02:41.881Z,10.80
2023-02-17T07:05:08.770Z,10.90
2023-02-17T07:07:35.550Z,10.90
2023-02-17T07:10:03.399Z,10.60
2023-02-17T07:12:30.238Z,10.80
2023-02-17T07:14:57.105Z,10.70
2023-02-17T07:17:23.981Z,11.00
2023-02-17T07:19:50.769Z,11.00
2023-02-17T07:22:17.564Z,11.00
2023-02-17T07:24:44.373Z,11.10
2023-02-17T07:27:11.280Z,11.00
2023-02-17T07:29:38.080Z,10.60
2023-02-17T07:32:05.105Z,11.30
2023-02-17T07:34:31.896Z,10.80
2023-02-17T07:36:58.656Z,10.70
2023-02-17T07:39:25.513Z,11.00
2023-02-17T07:41:54.732Z,10.80
2023-02-17T07:44:21.492Z,11.00
2023-02-17T07:46:48.314Z,10.70
2023-02-17T07:49:15.112Z,10.60
2023-02-17T07:51:41.938Z,11.00
2023-02-17T07:54:08.702Z,11.00
2023-02-17T07:56:35.634Z,10.90
2023-02-17T07:59:02.708Z,10.90
2023-02-17T08:01:29.566Z,11.10
2023-02-17T08:03:58.033Z,10.90
2023-02-17T08:06:26.993Z,11.20
2023-02-17T08:09:13.853Z,11.20
2023-02-17T08:12:02.649Z,10.70
2023-02-17T08:14:33.477Z,10.90
2023-02-17T08:17:00.925Z,10.80
2023-02-17T08:19:36.675Z,10.70
2023-02-17T08:22:13.687Z,11.10
2023-02-17T08:24:40.433Z,10.90
2023-02-17T08:27:07.288Z,10.60
2023-02-17T08:29:34.098Z,10.70
2023-02-17T08:32:00.952Z,10.90
2023-02-17T08:34:28.571Z,10.60
2023-02-17T08:36:55.390Z,10.60
2023-02-17T08:39:22.220Z,10.60
2023-02-17T08:41:49.004Z,10.40
2023-02-17T08:44:18.857Z,10.40
2023-02-17T08:46:48.164Z,10.70
2023-02-17T08:49:18.550Z,10.80
2023-02-17T08:51:46.000Z,10.60
2023-02-17T08:54:13.768Z,10.70
2023-02-17T08:56:41.355Z,10.80
2023-02-17T08:59:10.760Z,10.60
2023-02-17T09:01:39.044Z,10.50
2023-02-17T09:04:08.951Z,10.40
2023-02-17T09:06:41.806Z,10.30
2023-02-17T09:09:11.730Z,11.00
2023-02-17T09:11:38.724Z,10.70
2023-02-17T09:14:06.999Z,10.50
2023-02-17T09:16:33.762Z,11.00
2023-02-17T09:19:00.792Z,10.60
2023-02-17T09:21:27.693Z,11.00
2023-02-17T09:23:54.466Z,10.80
2023-02-17T09:26:21.877Z,10.50
2023-02-17T09:28:49.027Z,10.50
2023-02-17T09:31:20.466Z,10.50
2023-02-17T09:33:48.943Z,10.60
2023-02-17T09:36:20.672Z,10.50
2023-02-17T09:38:48.455Z,10.70
2023-02-17T09:41:40.315Z,10.60
2023-02-17T09:44:20.123Z,10.70
2023-02-17T09:47:02.133Z,10.50
2023-02-17T09:49:37.776Z,10.60
2023-02-17T09:52:41.190Z,10.50
2023-02-17T09:55:22.363Z,10.60
2023-02-17T09:58:11.507Z,10.50
2023-02-17T10:00:40.436Z,10.40
2023-02-17T10:03:20.698Z,10.40
2023-02-17T10:06:27.726Z,10.90
2023-02-17T10:09:03.541Z,10.40
2023-02-17T10:11:40.219Z,10.60
2023-02-17T10:14:18.151Z,10.90
2023-02-17T10:16:57.722Z,11.00
2023-02-17T10:19:41.393Z,10.70
2023-02-17T10:22:23.391Z,10.80
2023-02-17T10:24:50.282Z,10.60
2023-02-17T10:27:46.299Z,10.70
2023-02-17T10:30:49.394Z,11.00
2023-02-17T10:33:52.698Z,10.90
2023-02-17T10:36:33.994Z,10.80
2023-02-17T10:39:14.612Z,10.80
2023-02-17T10:41:43.244Z,10.80
2023-02-17T10:44:17.820Z,10.60
2023-02-17T10:46:45.033Z,10.60
2023-02-17T10:49:26.221Z,10.90
2023-02-17T10:51:53.010Z,10.70
2023-02-17T10:54:40.300Z,10.80
2023-02-17T10:57:11.381Z,10.70
2023-02-17T10:59:46.651Z,10.70
2023-02-17T11:02:20.487Z,11.00
2023-02-17T11:04:54.842Z,11.10
2023-02-17T11:07:32.541Z,11.10
2023-02-17T11:10:03.792Z,10.90
2023-02-17T11:12:34.176Z,11.10
2023-02-17T11:15:04.458Z,11.00
2023-02-17T11:17:39.965Z,11.10
2023-02-17T11:20:33.556Z,11.10
2023-02-17T11:23:22.949Z,11.50
2023-02-17T11:26:16.437Z,11.70
2023-02-17T11:28:43.225Z,11.40
2023-02-17T11:31:25.619Z,11.90
2023-02-17T11:33:52.560Z,11.20
2023-02-17T11:36:29.785Z,11.10
2023-02-17T11:38:57.494Z,11.20
2023-02-17T11:41:24.516Z,11.40
2023-02-17T11:44:00.167Z,11.60
2023-02-17T11:46:55.158Z,11.60
2023-02-17T11:49:55.534Z,11.70
2023-02-17T11:52:46.332Z,11.40
2023-02-17T11:55:55.072Z,11.70
2023-02-17T11:58:48.175Z,11.90
2023-02-17T12:01:51.166Z,11.90
2023-02-17T12:04:34.465Z,12.00
2023-02-17T12:07:09.927Z,12.10
2023-02-17T12:10:13.690Z,11.80
2023-02-17T12:13:15.834Z,12.10
2023-02-17T12:15:56.219Z,12.30
2023-02-17T12:18:45.940Z,12.10
2023-02-17T12:21:48.208Z,11.70
2023-02-17T12:24:32.999Z,12.30
2023-02-17T12:27:33.492Z,12.30
2023-02-17T12:30:50.051Z,12.40
2023-02-17T12:33:41.438Z,11.90
2023-02-17T12:36:11.917Z,12.00
2023-02-17T12:38:49.130Z,12.20
2023-02-17T12:41:34.933Z,12.30
2023-02-17T12:44:12.514Z,12.00
2023-02-17T12:46:43.909Z,11.80
2023-02-17T12:49:36.442Z,12.10
2023-02-17T12:52:39.291Z,12.30
2023-02-17T12:55:20.634Z,12.50
2023-02-17T12:57:58.158Z,12.50
2023-02-17T13:00:42.942Z,11.90
2023-02-17T13:03:10.905Z,12.40
2023-02-17T13:05:46.245Z,12.90
2023-02-17T13:08:46.667Z,12.50
2023-02-17T13:11:31.434Z,12.70
2023-02-17T13:14:10.111Z,12.70
2023-02-17T13:16:45.563Z,12.40
2023-02-17T13:19:15.038Z,12.70
2023-02-17T13:21:57.266Z,12.30
2023-02-17T13:24:40.347Z,12.30
2023-02-17T13:27:32.791Z,12.40
2023-02-17T13:30:22.504Z,12.60
2023-02-17T13:33:26.855Z,12.50
2023-02-17T13:35:53.780Z,12.60
2023-02-17T13:38:31.068Z,12.20
2023-02-17T13:41:04.445Z,12.30
2023-02-17T13:43:40.591Z,13.10
2023-02-17T13:46:10.486Z,12.50
2023-02-17T13:48:37.362Z,12.50
2023-02-17T13:51:06.956Z,13.00
2023-02-17T13:53:42.051Z,12.70
2023-02-17T13:56:27.879Z,12.90
2023-02-17T13:58:55.266Z,12.80
2023-02-17T14:01:27.245Z,13.00
2023-02-17T14:03:56.287Z,13.40
2023-02-17T14:06:36.990Z,13.10
2023-02-17T14:09:25.044Z,13.20
2023-02-17T14:11:53.965Z,13.70
2023-02-17T14:14:24.989Z,13.00
2023-02-17T14:17:04.860Z,13.90
2023-02-17T14:19:47.201Z,13.40
2023-02-17T14:22:32.585Z,13.60
2023-02-17T14:25:07.471Z,13.80
2023-02-17T14:27:47.012Z,13.50
2023-02-17T14:30:29.542Z,13.50
2023-02-17T14:33:10.780Z,13.00
2023-02-17T14:35:39.301Z,13.00
2023-02-17T14:38:24.188Z,13.50
2023-02-17T14:40:53.259Z,13.40
2023-02-17T14:43:20.039Z,13.60
2023-02-17T14:45:46.818Z,12.90
2023-02-17T14:48:13.824Z,13.10
2023-02-17T14:50:44.681Z,13.60
2023-02-17T14:53:17.942Z,13.20
2023-02-17T14:55:53.462Z,13.50
2023-02-17T14:58:22.682Z,13.40
2023-02-17T15:00:50.157Z,13.60
2023-02-17T15:03:17.174Z,13.80
2023-02-17T15:05:44.891Z,13.20
2023-02-17T15:08:16.500Z,13.40
2023-02-17T15:10:44.140Z,13.50
2023-02-17T15:13:19.756Z,13.20
2023-02-17T15:15:48.035Z,13.40
2023-02-17T15:18:17.926Z,13.30
2023-02-17T15:20:48.095Z,13.20
2023-02-17T15:23:21.992Z,13.60
2023-02-17T15:25:49.628Z,13.50
2023-02-17T15:28:20.159Z,13.30
2023-02-17T15:30:54.358Z,13.20
2023-02-17T15:33:23.830Z,13.10
2023-02-17T15:35:55.329Z,13.20
2023-02-17T15:38:23.787Z,13.20
2023-02-17T15:40:50.988Z,13.10
2023-02-17T15:43:21.591Z,12.90
2023-02-17T15:45:48.724Z,13.10
2023-02-17T15:48:27.426Z,13.00
2023-02-17T15:50:54.439Z,13.10
2023-02-17T15:53:21.366Z,13.00
2023-02-17T15:55:49.136Z,13.10
2023-02-17T15:58:19.267Z,12.90
2023-02-17T16:00:46.693Z,12.80
2023-02-17T16:03:14.598Z,12.60
2023-02-17T16:05:42.429Z,12.70
2023-02-17T16:08:09.543Z,12.80
2023-02-17T16:10:37.026Z,12.70
2023-02-17T16:13:04.086Z,12.70
2023-02-17T16:15:32.784Z,12.40
2023-02-17T16:17:59.931Z,12.60
2023-02-17T16:20:34.490Z,12.50
2023-02-17T16:23:02.727Z,12.70
2023-02-17T16:25:30.296Z,12.40
2023-02-17T16:27:57.595Z,12.30
2023-02-17T16:30:33.060Z,12.20
2023-02-17T16:33:01.661Z,12.00
2023-02-17T16:35:31.413Z,12.30
2023-02-17T16:38:07.928Z,12.00
2023-02-17T16:40:47.224Z,12.00
2023-02-17T16:43:20.131Z,12.20
2023-02-17T16:45:58.223Z,12.00
2023-02-17T16:48:29.659Z,11.90
2023-02-17T16:50:57.013Z,11.90
2023-02-17T16:53:24.281Z,11.80
2023-02-17T16:55:55.152Z,11.90
2023-02-17T16:58:25.110Z,12.00
2023-02-17T17:00:55.611Z,12.00
2023-02-17T17:03:22.829Z,11.80
2023-02-17T17:05:52.121Z,11.90
2023-02-17T17:08:21.289Z,12.10
2023-02-17T17:10:49.364Z,11.90
2023-02-17T17:13:16.461Z,11.90
2023-02-17T17:15:45.489Z,11.60
2023-02-17T17:18:21.141Z,11.80
2023-02-17T17:20:48.575Z,11.80
2023-02-17T17:23:16.651Z,11.70
2023-02-17T17:25:46.503Z,12.10
2023-02-17T17:28:16.201Z,11.90
2023-02-17T17:30:44.138Z,11.70
2023-02-17T17:33:10.982Z,11.80
2023-02-17T17:35:38.102Z,11.80
2023-02-17T17:38:05.219Z,12.20
2023-02-17T17:40:48.260Z,11.70
2023-02-17T17:43:17.136Z,11.90
2023-02-17T17:45:44.122Z,11.60
2023-02-17T17:48:16.911Z,11.60
2023-02-17T17:50:43.958Z,11.60
2023-02-17T17:53:11.236Z,11.60
2023-02-17T17:55:38.109Z,11.90
2023-02-17T17:58:05.146Z,11.80
2023-02-17T18:00:31.968Z,11.50
2023-02-17T18:02:58.805Z,11.80
2023-02-17T18:05:25.772Z,11.80
2023-02-17T18:07:52.862Z,12.00
2023-02-17T18:10:20.097Z,11.80
2023-02-17T18:12:48.350Z,11.70
2023-02-17T18:15:16.288Z,12.00
2023-02-17T18:17:43.614Z,11.90
2023-02-17T18:20:12.241Z,11.80
2023-02-17T18:22:39.799Z,11.80
2023-02-17T18:25:07.160Z,12.30
2023-02-17T18:27:43.463Z,12.30
2023-02-17T18:30:14.165Z,11.90
2023-02-17T18:32:41.621Z,11.90
2023-02-17T18:35:09.572Z,11.60
2023-02-17T18:37:36.539Z,11.80
2023-02-17T18:40:04.922Z,11.80
2023-02-17T18:42:32.167Z,11.90
2023-02-17T18:44:58.929Z,11.70
2023-02-17T18:47:26.074Z,11.70
2023-02-17T18:49:52.946Z,11.80
2023-02-17T18:52:19.758Z,11.80
2023-02-17T18:54:46.497Z,11.70
2023-02-17T18:57:13.521Z,11.90
2023-02-17T18:59:40.317Z,12.10
2023-02-17T19:02:12.560Z,11.80
2023-02-17T19:04:39.339Z,11.90
2023-02-17T19:07:07.103Z,11.60
2023-02-17T19:09:39.058Z,11.90
2023-02-17T19:12:09.633Z,11.90
2023-02-17T19:14:37.105Z,11.60
2023-02-17T19:17:03.881Z,11.70
2023-02-17T19:19:31.463Z,11.60
2023-02-17T19:21:58.526Z,11.70
2023-02-17T19:24:25.278Z,11.70
2023-02-17T19:26:54.539Z,11.80
2023-02-17T19:29:22.850Z,11.90
2023-02-17T19:31:49.835Z,12.00
2023-02-17T19:34:19.787Z,11.80
2023-02-17T19:36:46.760Z,12.00
2023-02-17T19:39:13.502Z,11.90
2023-02-17T19:41:40.313Z,11.60
2023-02-17T19:44:07.179Z,11.70
2023-02-17T19:46:33.969Z,11.60
2023-02-17T19:49:00.771Z,11.70
2023-02-17T19:51:27.533Z,11.70
2023-02-17T19:53:54.279Z,11.80
2023-02-17T19:56:27.637Z,11.60
2023-02-17T19:58:54.670Z,11.50
2023-02-17T20:01:31.308Z,11.50
2023-02-17T20:04:01.455Z,11.40
2023-02-17T20:06:48.512Z,11.60
2023-02-17T20:09:20.655Z,11.70
2023-02-17T20:11:49.116Z,11.60
2023-02-17T20:14:15.959Z,11.60
2023-02-17T20:16:42.789Z,11.40
2023-02-17T20:19:09.749Z,11.50
2023-02-17T20:21:38.535Z,11.70
2023-02-17T20:24:05.890Z,11.70
2023-02-17T20:26:38.864Z,11.50
2023-02-17T20:29:05.969Z,11.60
2023-02-17T20:31:35.551Z,11.60
2023-02-17T20:34:05.234Z,11.60
2023-02-17T20:36:32.692Z,11.40
2023-02-17T20:38:59.512Z,11.60
2023-02-17T20:41:26.574Z,11.60
2023-02-17T20:43:53.367Z,11.50
2023-02-17T20:46:28.674Z,11.50
2023-02-17T20:48:56.288Z,11.40
2023-02-17T20:51:23.588Z,11.50
2023-02-17T20:53:51.180Z,11.40
2023-02-17T20:56:22.500Z,11.60
2023-02-17T20:58:50.744Z,11.60
2023-02-17T21:01:18.033Z,11.50
2023-02-17T21:03:44.863Z,11.50
2023-02-17T21:06:27.990Z,11.70
2023-02-17T21:08:58.260Z,11.60
2023-02-17T21:11:25.530Z,11.40
2023-02-17T21:13:52.936Z,11.70
2023-02-17T21:16:25.673Z,11.90
2023-02-17T21:18:52.992Z,11.70
2023-02-17T21:21:20.319Z,11.90
2023-02-17T21:23:48.057Z,11.70
2023-02-17T21:26:16.390Z,11.50
2023-02-17T21:28:43.751Z,11.90
2023-02-17T21:31:10.870Z,11.80
2023-02-17T21:33:42.068Z,11.70
2023-02-17T21:36:10.158Z,11.80
2023-02-17T21:38:37.676Z,11.70
2023-02-17T21:41:12.264Z,11.80
2023-02-17T21:43:58.754Z,11.80
2023-02-17T21:46:26.709Z,11.80
2023-02-17T21:48:54.639Z,11.80
2023-02-17T21:51:21.422Z,11.80
2023-02-17T21:53:48.211Z,11.90
2023-02-17T21:56:15.947Z,11.70
2023-02-17T21:58:47.724Z,11.80
2023-02-17T22:01:15.248Z,11.80
2023-02-17T22:03:42.227Z,11.70
2023-02-17T22:06:24.439Z,12.10
2023-02-17T22:08:51.450Z,11.60
2023-02-17T22:11:30.917Z,11.80
2023-02-17T22:14:11.872Z,12.00
2023-02-17T22:16:40.151Z,11.80
2023-02-17T22:19:10.527Z,11.70
2023-02-17T22:21:39.073Z,11.80
2023-02-17T22:24:06.229Z,11.70
2023-02-17T22:26:33.039Z,11.60
2023-02-17T22:28:59.786Z,11.50
2023-02-17T22:31:29.431Z,11.40
2023-02-17T22:33:58.594Z,11.40
2023-02-17T22:36:27.310Z,11.50
2023-02-17T22:38:54.697Z,11.50
2023-02-17T22:41:24.361Z,11.80
2023-02-17T22:43:51.997Z,11.80
2023-02-17T22:46:22.316Z,11.60
2023-02-17T22:48:51.050Z,11.70
2023-02-17T22:51:25.033Z,11.60
2023-02-17T22:53:52.234Z,12.20
2023-02-17T22:56:19.889Z,11.80
2023-02-17T22:58:46.698Z,11.70
2023-02-17T23:01:17.514Z,11.60
2023-02-17T23:03:45.674Z,11.50
2023-02-17T23:06:35.623Z,11.60
2023-02-17T23:09:03.998Z,11.50
2023-02-17T23:11:50.724Z,11.30
2023-02-17T23:14:32.455Z,11.30
2023-02-17T23:17:03.008Z,11.30
2023-02-17T23:19:30.594Z,12.10
2023-02-17T23:22:10.382Z,11.50
2023-02-17T23:24:37.801Z,11.50
2023-02-17T23:27:05.101Z,11.50
2023-02-17T23:29:32.917Z,11.60
2023-02-17T23:31:59.979Z,11.40
2023-02-17T23:34:28.380Z,11.40
2023-02-17T23:36:55.617Z,11.30
2023-02-17T23:39:22.926Z,12.00
2023-02-17T23:41:49.758Z,11.30
2023-02-17T23:44:17.644Z,11.70
2023-02-17T23:46:45.524Z,11.40
2023-02-17T23:49:17.119Z,11.50
2023-02-17T23:51:45.089Z,11.40
2023-02-17T23:54:11.896Z,11.60
2023-02-17T23:56:38.962Z,11.60
2023-02-17T23:59:06.220Z,11.50
